Wetterdaten: Woche 01.03.04 - 07.03.04 (KW10)
Datum Zeit Temperatur Luftfeuchte Luftdruck Regenmenge Wind Richtung Taupunkt Windchill
01.03.2004 00:00 -3.2 C 63 % 1020.6 hPa 0.0 l/m 1.6 km/h (1 Bft) O-NO -9.1 C -3.7 C
01.03.2004 01:00 -3.2 C 60 % 1021.2 hPa 0.0 l/m 0.8 km/h (0 Bft) O-NO -9.8 C -3.4 C
01.03.2004 02:00 -3.1 C 57 % 1021.6 hPa 0.0 l/m 2.0 km/h (1 Bft) N-NO -10.4 C -3.6 C
01.03.2004 03:00 -3.6 C 59 % 1021.7 hPa 0.0 l/m 2.5 km/h (1 Bft) N-NO -10.5 C -4.5 C
01.03.2004 04:00 -4.1 C 60 % 1022.1 hPa 0.0 l/m 1.3 km/h (1 Bft) N-NO -10.7 C -4.5 C
01.03.2004 05:00 -3.7 C 59 % 1022.8 hPa 0.0 l/m 0.3 km/h (0 Bft) O-NO -10.6 C -3.7 C
01.03.2004 06:00 -3.2 C 59 % 1023.0 hPa 0.0 l/m 2.8 km/h (1 Bft) O -10.0 C -4.3 C
01.03.2004 07:00 -3.1 C 64 % 1023.7 hPa 0.0 l/m 0.6 km/h (0 Bft) NO -8.8 C -3.2 C
01.03.2004 08:00 -2.9 C 67 % 1024.7 hPa 0.0 l/m 3.0 km/h (1 Bft) NO -8.2 C -3.8 C
01.03.2004 09:00 -2.0 C 58 % 1024.6 hPa 0.0 l/m 3.2 km/h (1 Bft) O-NO -9.1 C -3.0 C
01.03.2004 10:00 -1.1 C 50 % 1025.2 hPa 0.0 l/m 10.0 km/h (2 Bft) O-NO -10.0 C -4.3 C
01.03.2004 11:00 0.5 C 48 % 1025.3 hPa 0.0 l/m 21.8 km/h (4 Bft) O-SO -9.3 C -4.6 C
01.03.2004 12:00 0.9 C 46 % 1025.3 hPa 0.0 l/m 25.1 km/h (4 Bft) O-SO -9.3 C -4.7 C
01.03.2004 13:00 2.0 C 44 % 1025.3 hPa 0.0 l/m 23.1 km/h (4 Bft) O-SO -9.0 C -3.2 C
01.03.2004 14:00 2.0 C 43 % 1025.7 hPa 0.0 l/m 13.7 km/h (3 Bft) O-SO -9.3 C -1.2 C
01.03.2004 15:00 0.1 C 57 % 1026.4 hPa 0.0 l/m 5.7 km/h (1 Bft) N -7.3 C -1.4 C
01.03.2004 16:00 0.5 C 54 % 1026.3 hPa 0.0 l/m 4.9 km/h (1 Bft) N-NO -7.7 C -0.7 C
01.03.2004 17:00 -0.3 C 52 % 1027.4 hPa 0.0 l/m 2.6 km/h (1 Bft) N-NO -8.8 C -1.0 C
01.03.2004 18:00 -1.0 C 54 % 1028.6 hPa 0.0 l/m 5.1 km/h (1 Bft) N-NO -9.2 C -2.6 C
01.03.2004 19:00 -1.5 C 53 % 1029.3 hPa 0.0 l/m 3.7 km/h (1 Bft) N-NO -9.9 C -2.4 C
01.03.2004 20:00 -2.3 C 55 % 1030.1 hPa 0.0 l/m 2.8 km/h (1 Bft) N-NO -10.1 C -3.1 C
01.03.2004 21:00 -3.0 C 58 % 1031.0 hPa 0.0 l/m 1.2 km/h (1 Bft) N-NO -10.0 C -3.3 C
01.03.2004 22:00 -3.3 C 55 % 1031.0 hPa 0.0 l/m 3.1 km/h (1 Bft) N-NO -10.9 C -4.1 C
01.03.2004 23:00 -4.2 C 60 % 1031.3 hPa 0.0 l/m 0.3 km/h (0 Bft) N-NO -10.8 C -4.2 C
02.03.2004 00:00 -4.5 C 58 % 1032.1 hPa 0.0 l/m 0.3 km/h (0 Bft) N -11.4 C -4.5 C
02.03.2004 01:00 -5.4 C 62 % 1032.4 hPa 0.0 l/m 0.0 km/h (0 Bft) NO -11.4 C -5.4 C
02.03.2004 02:00 -6.2 C 69 % 1032.5 hPa 0.0 l/m 0.9 km/h (0 Bft) NO -10.9 C -6.3 C
02.03.2004 03:00 -6.4 C 71 % 1032.6 hPa 0.0 l/m 2.6 km/h (1 Bft) O-NO -10.8 C -7.4 C
02.03.2004 04:00 -6.6 C 71 % 1032.6 hPa 0.0 l/m 0.5 km/h (0 Bft) O -10.9 C -6.6 C
02.03.2004 05:00 -6.6 C 74 % 1032.6 hPa 0.0 l/m 0.7 km/h (0 Bft) O -10.5 C -6.8 C
02.03.2004 06:00 -6.2 C 73 % 1032.5 hPa 0.0 l/m 0.1 km/h (0 Bft) N -10.2 C -6.2 C
02.03.2004 07:00 -5.8 C 72 % 1032.5 hPa 0.0 l/m 0.8 km/h (0 Bft) O -10.0 C -6.1 C
02.03.2004 08:00 -4.6 C 64 % 1032.3 hPa 0.0 l/m 0.1 km/h (0 Bft) O -10.3 C -4.6 C
02.03.2004 09:00 -3.5 C 59 % 1032.5 hPa 0.0 l/m 0.2 km/h (0 Bft) O -10.3 C -3.5 C
02.03.2004 10:00 -2.4 C 53 % 1033.0 hPa 0.0 l/m 0.4 km/h (0 Bft) O -10.6 C -2.4 C
02.03.2004 11:00 -1.0 C 51 % 1032.8 hPa 0.0 l/m 0.1 km/h (0 Bft) N -10.0 C -1.0 C
02.03.2004 12:00 -0.3 C 53 % 1032.7 hPa 0.0 l/m 0.7 km/h (0 Bft) O-SO -8.8 C -0.5 C
02.03.2004 13:00 0.6 C 52 % 1032.4 hPa 0.0 l/m 2.5 km/h (1 Bft) O-SO -8.0 C 0.0 C
02.03.2004 14:00 1.1 C 50 % 1032.4 hPa 0.0 l/m 0.1 km/h (0 Bft) W-NW -8.1 C 1.1 C
02.03.2004 15:00 0.5 C 59 % 1032.3 hPa 0.0 l/m 6.6 km/h (2 Bft) W-NW -6.6 C -1.5 C
02.03.2004 16:00 0.5 C 66 % 1031.5 hPa 0.0 l/m 2.3 km/h (1 Bft) SO -5.0 C 0.3 C
02.03.2004 17:00 0.3 C 71 % 1031.9 hPa 0.0 l/m 1.0 km/h (0 Bft) SO -4.3 C -0.0 C
02.03.2004 18:00 -0.1 C 72 % 1032.6 hPa 0.0 l/m 1.0 km/h (0 Bft) SO -4.5 C -0.3 C
02.03.2004 19:00 -0.3 C 76 % 1032.7 hPa 0.0 l/m 2.1 km/h (1 Bft) SO -4.1 C -0.7 C
02.03.2004 20:00 -0.3 C 78 % 1032.7 hPa 0.0 l/m 0.7 km/h (0 Bft) SO -3.7 C -0.4 C
02.03.2004 21:00 -0.5 C 82 % 1032.7 hPa 0.0 l/m 0.0 km/h (0 Bft) N -3.2 C -0.5 C
02.03.2004 22:00 -0.5 C 82 % 1033.2 hPa 0.0 l/m 1.9 km/h (1 Bft) O-SO -3.2 C -1.0 C
02.03.2004 23:00 -0.5 C 84 % 1033.6 hPa 0.0 l/m 0.4 km/h (0 Bft) O-SO -3.0 C -0.5 C
03.03.2004 00:00 -0.6 C 83 % 1033.8 hPa 0.0 l/m 0.0 km/h (0 Bft) N -3.0 C -0.6 C
03.03.2004 01:00 -0.6 C 83 % 1033.8 hPa 0.0 l/m 0.0 km/h (0 Bft) N -3.1 C -0.6 C
03.03.2004 02:00 -0.9 C 83 % 1032.9 hPa 0.0 l/m 0.0 km/h (0 Bft) N -3.3 C -0.9 C
03.03.2004 03:00 -1.5 C 86 % 1033.0 hPa 0.0 l/m 2.3 km/h (1 Bft) O-SO -3.5 C -1.8 C
03.03.2004 04:00 -1.7 C 90 % 1032.9 hPa 0.0 l/m 3.6 km/h (1 Bft) O-SO -3.1 C -2.6 C
03.03.2004 05:00 -2.0 C 89 % 1032.9 hPa 0.0 l/m 4.0 km/h (1 Bft) O-SO -3.5 C -3.3 C
03.03.2004 06:00 -3.2 C 89 % 1033.4 hPa 0.0 l/m 0.9 km/h (0 Bft) O-SO -4.8 C -3.4 C
03.03.2004 07:00 -3.5 C 90 % 1034.2 hPa 0.0 l/m 2.3 km/h (1 Bft) O-SO -4.9 C -4.1 C
03.03.2004 08:00 -2.2 C 85 % 1034.0 hPa 0.0 l/m 0.0 km/h (0 Bft) N -4.4 C -2.2 C
03.03.2004 09:00 -1.0 C 79 % 1033.3 hPa 0.0 l/m 0.0 km/h (0 Bft) N -4.1 C -1.0 C
03.03.2004 10:00 1.4 C 67 % 1032.4 hPa 0.0 l/m 0.6 km/h (0 Bft) NO -4.0 C 1.4 C
03.03.2004 11:00 3.9 C 55 % 1032.0 hPa 0.0 l/m 3.2 km/h (1 Bft) SO -4.2 C 3.2 C
03.03.2004 12:00 6.0 C 49 % 1031.0 hPa 0.0 l/m 7.7 km/h (2 Bft) O-SO -3.9 C 4.5 C
03.03.2004 13:00 6.8 C 49 % 1030.6 hPa 0.0 l/m 11.5 km/h (2 Bft) O-SO -3.2 C 4.6 C
03.03.2004 14:00 7.4 C 46 % 1029.5 hPa 0.0 l/m 9.0 km/h (2 Bft) O-SO -3.5 C 5.8 C
03.03.2004 15:00 7.5 C 43 % 1029.3 hPa 0.0 l/m 2.3 km/h (1 Bft) W -4.2 C 7.2 C
03.03.2004 16:00 7.3 C 42 % 1028.4 hPa 0.0 l/m 4.7 km/h (1 Bft) W -4.7 C 6.5 C
03.03.2004 17:00 6.3 C 46 % 1028.6 hPa 0.0 l/m 4.9 km/h (1 Bft) W-NW -4.5 C 5.5 C
03.03.2004 18:00 3.5 C 55 % 1030.0 hPa 0.0 l/m 5.8 km/h (2 Bft) O-SO -4.7 C 2.1 C
03.03.2004 19:00 1.0 C 67 % 1030.4 hPa 0.0 l/m 9.5 km/h (2 Bft) O-SO -4.4 C -1.8 C
03.03.2004 20:00 -0.3 C 73 % 1030.2 hPa 0.0 l/m 6.6 km/h (2 Bft) O-SO -4.6 C -2.4 C
03.03.2004 21:00 -1.7 C 81 % 1030.8 hPa 0.0 l/m 3.7 km/h (1 Bft) O-SO -4.6 C -2.9 C
03.03.2004 22:00 -2.7 C 82 % 1031.0 hPa 0.0 l/m 1.4 km/h (1 Bft) O-SO -5.3 C -3.3 C
03.03.2004 23:00 -3.0 C 86 % 1031.0 hPa 0.0 l/m 2.0 km/h (1 Bft) O-SO -5.1 C -3.5 C
04.03.2004 00:00 -3.9 C 87 % 1031.1 hPa 0.0 l/m 2.1 km/h (1 Bft) O-SO -5.7 C -4.7 C
04.03.2004 01:00 -4.4 C 88 % 1031.0 hPa 0.0 l/m 3.1 km/h (1 Bft) O-SO -6.0 C -5.5 C
04.03.2004 02:00 -4.9 C 88 % 1030.3 hPa 0.0 l/m 0.0 km/h (0 Bft) N -6.6 C -4.9 C
04.03.2004 03:00 -5.2 C 89 % 1030.3 hPa 0.0 l/m 2.4 km/h (1 Bft) O-SO -6.8 C -6.2 C
04.03.2004 04:00 -5.5 C 90 % 1029.6 hPa 0.0 l/m 1.7 km/h (1 Bft) O-SO -6.9 C -6.0 C
04.03.2004 05:00 -5.7 C 90 % 1029.3 hPa 0.0 l/m 0.9 km/h (0 Bft) O-SO -7.1 C -5.9 C
04.03.2004 06:00 -5.8 C 90 % 1029.3 hPa 0.0 l/m 1.8 km/h (1 Bft) O-SO -7.1 C -6.2 C
04.03.2004 07:00 -4.3 C 92 % 1029.1 hPa 0.0 l/m 0.3 km/h (0 Bft) O-SO -5.5 C -4.3 C
04.03.2004 08:00 -3.3 C 83 % 1028.7 hPa 0.0 l/m 0.7 km/h (0 Bft) W -5.8 C -3.6 C
04.03.2004 09:00 -1.8 C 75 % 1027.7 hPa 0.0 l/m 0.4 km/h (0 Bft) W -5.6 C -1.9 C
04.03.2004 10:00 0.4 C 63 % 1027.3 hPa 0.0 l/m 0.4 km/h (0 Bft) W -5.8 C 0.4 C
04.03.2004 11:00 2.7 C 53 % 1026.0 hPa 0.0 l/m 0.3 km/h (0 Bft) W -6.0 C 2.7 C
04.03.2004 12:00 4.1 C 47 % 1025.4 hPa 0.0 l/m 1.2 km/h (1 Bft) SO -6.2 C 4.0 C
04.03.2004 13:00 4.7 C 43 % 1024.6 hPa 0.0 l/m 0.4 km/h (0 Bft) SO -6.7 C 4.7 C
04.03.2004 14:00 5.3 C 43 % 1024.3 hPa 0.0 l/m 1.7 km/h (1 Bft) O-SO -6.4 C 5.0 C
04.03.2004 15:00 6.1 C 42 % 1023.4 hPa 0.0 l/m 2.6 km/h (1 Bft) O-SO -5.8 C 5.8 C
04.03.2004 16:00 6.1 C 41 % 1023.1 hPa 0.0 l/m 0.1 km/h (0 Bft) N -6.1 C 6.1 C
04.03.2004 17:00 5.1 C 46 % 1022.5 hPa 0.0 l/m 0.3 km/h (0 Bft) O-SO -5.6 C 5.1 C
04.03.2004 18:00 3.4 C 55 % 1022.8 hPa 0.0 l/m 0.4 km/h (0 Bft) O-SO -4.9 C 3.3 C
04.03.2004 19:00 1.7 C 62 % 1022.5 hPa 0.0 l/m 1.7 km/h (1 Bft) O-SO -4.7 C 1.5 C
04.03.2004 20:00 0.5 C 71 % 1022.6 hPa 0.0 l/m 2.7 km/h (1 Bft) O-SO -4.2 C -0.2 C
04.03.2004 21:00 -0.6 C 81 % 1022.4 hPa 0.0 l/m 0.5 km/h (0 Bft) O-SO -3.5 C -0.7 C
04.03.2004 22:00 -0.3 C 78 % 1022.3 hPa 0.0 l/m 0.0 km/h (0 Bft) N -3.6 C -0.3 C
04.03.2004 23:00 -0.6 C 79 % 1022.0 hPa 0.0 l/m 0.0 km/h (0 Bft) N -3.8 C -0.6 C
05.03.2004 00:00 -1.6 C 83 % 1021.4 hPa 0.0 l/m 0.0 km/h (0 Bft) N -4.2 C -1.6 C
05.03.2004 01:00 -1.4 C 84 % 1021.4 hPa 0.0 l/m 0.0 km/h (0 Bft) N -3.7 C -1.4 C
05.03.2004 02:00 -1.6 C 85 % 1021.4 hPa 0.0 l/m 0.0 km/h (0 Bft) N -3.8 C -1.6 C
05.03.2004 03:00 -2.3 C 87 % 1021.4 hPa 0.0 l/m 0.0 km/h (0 Bft) N -4.1 C -2.3 C
05.03.2004 04:00 -2.4 C 90 % 1020.5 hPa 0.0 l/m 0.0 km/h (0 Bft) N -3.8 C -2.4 C
05.03.2004 05:00 -1.5 C 92 % 1020.4 hPa 0.0 l/m 0.0 km/h (0 Bft) N -2.6 C -1.5 C
05.03.2004 06:00 -1.0 C 86 % 1020.3 hPa 0.0 l/m 0.3 km/h (0 Bft) O-SO -3.1 C -1.1 C
05.03.2004 07:00 -0.8 C 81 % 1020.2 hPa 0.0 l/m 0.0 km/h (0 Bft) O-SO -3.6 C -0.8 C
05.03.2004 08:00 -0.1 C 75 % 1020.2 hPa 0.0 l/m 0.2 km/h (0 Bft) O-SO -4.0 C -0.1 C
05.03.2004 09:00 1.1 C 68 % 1020.0 hPa 0.0 l/m 0.0 km/h (0 Bft) N -4.2 C 1.1 C
05.03.2004 10:00 3.3 C 49 % 1019.6 hPa 0.0 l/m 11.0 km/h (2 Bft) O-SO -6.4 C 0.6 C
05.03.2004 11:00 4.3 C 43 % 1019.5 hPa 0.0 l/m 13.9 km/h (3 Bft) O-SO -7.0 C 1.2 C
05.03.2004 12:00 5.3 C 42 % 1019.4 hPa 0.0 l/m 7.3 km/h (2 Bft) O-SO -6.6 C 3.7 C
05.03.2004 13:00 5.2 C 44 % 1019.1 hPa 0.0 l/m 5.3 km/h (1 Bft) O-SO -6.0 C 4.1 C
05.03.2004 14:00 3.8 C 58 % 1018.6 hPa 0.0 l/m 4.5 km/h (1 Bft) O-SO -3.8 C 2.7 C
05.03.2004 15:00 3.3 C 68 % 1018.6 hPa 0.0 l/m 0.9 km/h (0 Bft) O-SO -2.1 C 3.2 C
05.03.2004 16:00 2.9 C 70 % 1018.7 hPa 0.0 l/m 3.7 km/h (1 Bft) O -2.0 C 2.0 C
05.03.2004 17:00 2.6 C 73 % 1018.7 hPa 0.0 l/m 0.2 km/h (0 Bft) O -1.7 C 2.6 C
05.03.2004 18:00 2.3 C 78 % 1018.6 hPa 0.0 l/m 0.0 km/h (0 Bft) N -1.2 C 2.3 C
05.03.2004 19:00 1.9 C 86 % 1018.1 hPa 0.3 l/m 0.0 km/h (0 Bft) N -0.2 C 1.9 C
05.03.2004 20:00 1.7 C 91 % 1017.8 hPa 0.0 l/m 0.0 km/h (0 Bft) N 0.5 C 1.7 C
05.03.2004 21:00 1.7 C 94 % 1017.8 hPa 0.0 l/m 0.0 km/h (0 Bft) N 0.9 C 1.7 C
05.03.2004 22:00 1.7 C 96 % 1017.8 hPa 0.3 l/m 0.0 km/h (0 Bft) N 1.2 C 1.7 C
05.03.2004 23:00 1.7 C 96 % 1017.8 hPa 0.0 l/m 0.0 km/h (0 Bft) N 1.2 C 1.7 C
06.03.2004 00:00 1.6 C 98 % 1017.6 hPa 0.3 l/m 0.0 km/h (0 Bft) N 1.3 C 1.6 C
06.03.2004 01:00 1.6 C 99 % 1016.8 hPa 0.7 l/m 0.0 km/h (0 Bft) N 1.4 C 1.6 C
06.03.2004 02:00 1.5 C 99 % 1016.8 hPa 0.7 l/m 0.0 km/h (0 Bft) N 1.3 C 1.5 C
06.03.2004 03:00 1.4 C 100 % 1016.8 hPa 0.7 l/m 0.0 km/h (0 Bft) N 1.4 C 1.4 C
06.03.2004 04:00 1.1 C 100 % 1016.9 hPa 0.3 l/m 0.0 km/h (0 Bft) N 1.1 C 1.1 C
06.03.2004 05:00 1.0 C 100 % 1016.9 hPa 0.7 l/m 0.0 km/h (0 Bft) N 1.0 C 1.0 C
06.03.2004 06:00 1.1 C 100 % 1016.8 hPa 0.3 l/m 1.8 km/h (1 Bft) O 1.1 C 0.9 C
06.03.2004 07:00 1.4 C 100 % 1017.5 hPa 0.7 l/m 0.3 km/h (0 Bft) O 1.3 C 1.3 C
06.03.2004 08:00 2.2 C 100 % 1017.7 hPa 0.3 l/m 1.0 km/h (0 Bft) O 2.2 C 2.0 C
06.03.2004 09:00 3.2 C 100 % 1017.6 hPa 0.0 l/m 0.3 km/h (0 Bft) O 3.2 C 3.2 C
06.03.2004 10:00 4.2 C 98 % 1017.8 hPa 0.0 l/m 3.4 km/h (1 Bft) W 4.0 C 3.6 C
06.03.2004 11:00 4.5 C 96 % 1018.4 hPa 0.0 l/m 1.8 km/h (1 Bft) W-NW 3.9 C 4.2 C
06.03.2004 12:00 5.1 C 87 % 1018.4 hPa 0.0 l/m 13.5 km/h (3 Bft) W-NW 3.0 C 2.2 C
06.03.2004 13:00 5.4 C 77 % 1018.3 hPa 0.0 l/m 10.7 km/h (2 Bft) W-NW 1.7 C 3.1 C
06.03.2004 14:00 5.6 C 72 % 1018.3 hPa 0.0 l/m 10.8 km/h (2 Bft) W-NW 0.9 C 3.5 C
06.03.2004 15:00 6.1 C 65 % 1018.2 hPa 0.0 l/m 14.6 km/h (3 Bft) W-NW 0.1 C 3.3 C
06.03.2004 16:00 6.1 C 63 % 1018.2 hPa 0.0 l/m 16.4 km/h (3 Bft) W-NW -0.5 C 2.9 C
06.03.2004 17:00 5.6 C 65 % 1019.2 hPa 0.0 l/m 18.4 km/h (3 Bft) W-NW -0.5 C 2.1 C
06.03.2004 18:00 5.0 C 70 % 1019.8 hPa 0.0 l/m 11.5 km/h (2 Bft) W-NW -0.1 C 2.5 C
06.03.2004 19:00 4.7 C 73 % 1020.5 hPa 0.0 l/m 14.2 km/h (3 Bft) W-NW 0.2 C 1.7 C
06.03.2004 20:00 4.4 C 74 % 1021.2 hPa 0.0 l/m 19.6 km/h (3 Bft) NW 0.2 C 0.5 C
06.03.2004 21:00 4.0 C 77 % 1021.6 hPa 0.0 l/m 25.9 km/h (4 Bft) W-NW 0.3 C -0.8 C
06.03.2004 22:00 3.7 C 77 % 1022.5 hPa 0.0 l/m 11.4 km/h (2 Bft) W-NW 0.0 C 1.2 C
06.03.2004 23:00 3.4 C 77 % 1022.8 hPa 0.0 l/m 4.3 km/h (1 Bft) W -0.3 C 2.4 C
07.03.2004 00:00 3.1 C 77 % 1022.8 hPa 0.0 l/m 6.6 km/h (2 Bft) W-NW -0.5 C 1.3 C
07.03.2004 01:00 2.6 C 78 % 1022.9 hPa 0.0 l/m 4.3 km/h (1 Bft) W -0.9 C 1.7 C
07.03.2004 02:00 2.3 C 78 % 1022.9 hPa 0.0 l/m 4.6 km/h (1 Bft) W -1.2 C 1.2 C
07.03.2004 03:00 1.1 C 82 % 1023.1 hPa 0.0 l/m 5.6 km/h (1 Bft) W -1.5 C -0.4 C
07.03.2004 04:00 -0.0 C 87 % 1023.3 hPa 0.0 l/m 4.7 km/h (1 Bft) W -1.9 C -1.4 C
07.03.2004 05:00 -0.4 C 90 % 1023.3 hPa 0.0 l/m 1.6 km/h (1 Bft) W -1.9 C -0.7 C
07.03.2004 06:00 -0.4 C 91 % 1023.3 hPa 0.0 l/m 0.9 km/h (0 Bft) SO -1.6 C -0.5 C
07.03.2004 07:00 0.3 C 93 % 1023.7 hPa 0.0 l/m 0.1 km/h (0 Bft) S-SW -0.7 C 0.3 C
07.03.2004 08:00 1.9 C 81 % 1024.0 hPa 0.0 l/m 0.3 km/h (0 Bft) S -1.1 C 1.9 C
07.03.2004 09:00 2.9 C 75 % 1023.9 hPa 0.0 l/m 1.2 km/h (1 Bft) SO -1.1 C 2.7 C
07.03.2004 10:00 4.0 C 66 % 1023.6 hPa 0.0 l/m 5.1 km/h (1 Bft) W -1.7 C 2.9 C
07.03.2004 11:00 4.8 C 57 % 1023.0 hPa 0.0 l/m 4.1 km/h (1 Bft) W -3.1 C 4.1 C
07.03.2004 12:00 5.9 C 51 % 1022.4 hPa 0.0 l/m 1.9 km/h (1 Bft) SO -3.4 C 5.5 C
07.03.2004 13:00 7.0 C 49 % 1021.2 hPa 0.0 l/m 6.9 km/h (2 Bft) O-SO -3.1 C 5.8 C
07.03.2004 14:00 6.9 C 44 % 1021.2 hPa 0.0 l/m 2.1 km/h (1 Bft) O-SO -4.5 C 6.6 C
07.03.2004 15:00 6.9 C 47 % 1020.2 hPa 0.0 l/m 3.9 km/h (1 Bft) W-NW -3.6 C 6.2 C
07.03.2004 16:00 5.8 C 54 % 1021.2 hPa 0.0 l/m 1.4 km/h (1 Bft) NW -2.7 C 5.6 C
07.03.2004 17:00 5.0 C 59 % 1021.5 hPa 0.3 l/m 0.5 km/h (0 Bft) N-NO -2.4 C 5.0 C
07.03.2004 18:00 4.1 C 62 % 1021.6 hPa 0.0 l/m 0.5 km/h (0 Bft) O-NO -2.4 C 4.1 C
07.03.2004 19:00 2.8 C 72 % 1022.6 hPa 0.0 l/m 0.6 km/h (0 Bft) NO -1.8 C 2.8 C
07.03.2004 20:00 2.2 C 77 % 1022.9 hPa 0.0 l/m 1.4 km/h (1 Bft) NO -1.5 C 2.1 C
07.03.2004 21:00 1.7 C 81 % 1023.0 hPa 0.0 l/m 2.9 km/h (1 Bft) O-NO -1.1 C 1.2 C
07.03.2004 22:00 0.7 C 86 % 1023.2 hPa 0.0 l/m 2.5 km/h (1 Bft) O-NO -1.3 C 0.1 C
07.03.2004 23:00 -0.4 C 90 % 1024.0 hPa 0.0 l/m 0.1 km/h (0 Bft) O-NO -1.8 C -0.4 C
Min-Datum _ 02.03.04 04.03.04 06.03.04 - 01.03.04 - 02.03.04 02.03.04
_ Min-Zeit 05:09 16:21 00:57 - 00:00 - 00:54 03:48
Minimum _ -6.9 C 38 % 1016.8 hPa - 0.0 km/h (0 Bft) - -12.3 C -10.0 C
Max-Datum _ 07.03.04 06.03.04 03.03.04 06.03.04 01.03.04 - 06.03.04 03.03.04
_ Max-Zeit 13:39 03:03 07:18 00:00 11:36 - 10:45 15:42
Maximum _ 8.1 C 100 % 1034.3 hPa 0.7 l/m 37.8 km/h
O-SO (5 Bft)
- 4.3 C 7.8 C
Durchschnitt _ 0.6 C 71 % 1025.2 hPa #5.8 l/m 3.4 km/h (1 Bft) O-SO -4.4 C -0.1 C

Durchschnitt Minimum Temp.0.0 C
Durchschnitt Maximum Temp.1.2 C
© Kaiko 2004